Time;durP1;ratioP1;P1;durP2;ratioP2;P2;SDS_P1;SDS_P2;PMS_P1;PMS_P2;Temp;Humidity;BMP_temperature;BMP_pressure;BME280_temperature;BME280_humidity;BME280_pressure;Samples;Min_cycle;Max_cycle;Signal;HPM_P1;HPM_P2
2023/01/27 00:00:35;;;;;;;6.15;1.70;;;;;;;;;;5032167;28;20493;-59
2023/01/27 00:03:01;;;;;;;4.38;1.48;;;;;;;;;;5041583;28;20035;-63
2023/01/27 00:05:27;;;;;;;8.70;1.63;;;;;;;;;;5052302;28;20021;-60
2023/01/27 00:07:54;;;;;;;7.70;2.05;;;;;;;;;;5052537;28;20029;-60
2023/01/27 00:10:20;;;;;;;5.90;1.60;;;;;;;;;;5051996;28;20100;-60
2023/01/27 00:15:32;;;;;;;4.38;1.25;;;;;;;;;;5031844;28;20113;-65
2023/01/27 00:17:58;;;;;;;5.78;1.80;;;;;;;;;;5032078;28;20026;-59
2023/01/27 00:26:05;;;;;;;6.28;1.55;;;;;;;;;;5031954;28;20079;-60
2023/01/27 00:28:31;;;;;;;5.40;1.27;;;;;;;;;;5036579;28;20036;-60
2023/01/27 00:30:57;;;;;;;8.40;1.90;;;;;;;;;;5052014;28;20021;-61
2023/01/27 00:33:26;;;;;;;4.63;1.10;;;;;;;;;;5051887;28;20544;-59
2023/01/27 00:35:59;;;;;;;4.80;1.50;;;;;;;;;;5051917;28;20029;-60
2023/01/27 00:38:26;;;;;;;6.15;1.27;;;;;;;;;;5051847;28;20104;-60
2023/01/27 00:43:37;;;;;;;4.55;1.30;;;;;;;;;;5050614;28;20036;-64
2023/01/27 00:46:03;;;;;;;5.00;1.42;;;;;;;;;;5051431;28;20201;-65
2023/01/27 00:48:29;;;;;;;5.20;1.20;;;;;;;;;;5051205;28;20017;-60
2023/01/27 00:50:55;;;;;;;4.60;1.40;;;;;;;;;;5051470;28;20557;-63
2023/01/27 00:53:21;;;;;;;3.55;1.20;;;;;;;;;;5051152;28;20036;-65
2023/01/27 00:55:47;;;;;;;4.95;1.40;;;;;;;;;;5051006;28;20400;-61
2023/01/27 00:58:14;;;;;;;5.43;1.20;;;;;;;;;;5031731;28;20029;-59
2023/01/27 01:00:40;;;;;;;7.18;1.48;;;;;;;;;;5031091;28;20029;-61
2023/01/27 01:03:06;;;;;;;5.10;1.17;;;;;;;;;;5030892;28;20049;-62
2023/01/27 01:05:32;;;;;;;3.40;1.23;;;;;;;;;;5030747;28;20064;-60
2023/01/27 01:07:58;;;;;;;3.47;1.00;;;;;;;;;;5031104;28;20079;-59
2023/01/27 01:10:24;;;;;;;5.63;1.58;;;;;;;;;;5031433;28;20075;-61
2023/01/27 01:12:50;;;;;;;5.47;1.35;;;;;;;;;;5030854;28;20036;-60
2023/01/27 01:15:15;;;;;;;4.55;0.98;;;;;;;;;;5049562;28;20635;-60
2023/01/27 01:17:41;;;;;;;5.90;1.50;;;;;;;;;;5050803;28;20040;-63
2023/01/27 01:20:08;;;;;;;4.03;1.30;;;;;;;;;;5050251;28;20054;-60
2023/01/27 01:22:34;;;;;;;3.53;1.00;;;;;;;;;;5050740;28;20118;-60
2023/01/27 01:25:00;;;;;;;6.57;1.52;;;;;;;;;;5050825;28;20480;-60
2023/01/27 01:27:26;;;;;;;4.22;1.40;;;;;;;;;;5050729;28;20032;-59
2023/01/27 01:29:52;;;;;;;4.07;1.08;;;;;;;;;;5050961;28;20021;-61
2023/01/27 01:32:18;;;;;;;7.30;1.23;;;;;;;;;;5050669;28;20079;-64
2023/01/27 01:34:44;;;;;;;4.13;1.25;;;;;;;;;;5050184;28;20037;-60
2023/01/27 01:37:10;;;;;;;5.50;1.38;;;;;;;;;;5050855;28;20021;-59
2023/01/27 01:39:36;;;;;;;8.20;1.63;;;;;;;;;;5050571;28;20028;-62
2023/01/27 01:42:02;;;;;;;6.10;1.25;;;;;;;;;;5041889;28;20473;-60
2023/01/27 01:44:30;;;;;;;4.30;0.98;;;;;;;;;;5030677;28;20026;-60
2023/01/27 01:46:56;;;;;;;5.10;1.75;;;;;;;;;;5031098;28;20084;-60
2023/01/27 01:49:25;;;;;;;3.72;1.00;;;;;;;;;;5030766;28;20026;-64
2023/01/27 01:51:52;;;;;;;7.25;1.42;;;;;;;;;;5030639;28;20394;-61
2023/01/27 01:54:45;;;;;;;3.88;1.00;;;;;;;;;;5030541;28;20450;-60
2023/01/27 01:57:14;;;;;;;4.30;1.17;;;;;;;;;;5027676;28;20060;-60
2023/01/27 02:00:00;;;;;;;4.05;1.10;;;;;;;;;;5030342;28;20033;-60
2023/01/27 02:02:26;;;;;;;3.38;1.00;;;;;;;;;;5030827;28;20029;-61
2023/01/27 02:04:54;;;;;;;3.70;1.20;;;;;;;;;;5030764;28;20026;-61
2023/01/27 02:07:22;;;;;;;5.65;1.52;;;;;;;;;;5030390;28;20067;-64
2023/01/27 02:09:47;;;;;;;5.75;1.20;;;;;;;;;;5044987;28;20040;-61
2023/01/27 02:12:13;;;;;;;5.10;1.35;;;;;;;;;;5030550;28;20022;-59
2023/01/27 02:14:40;;;;;;;3.45;0.98;;;;;;;;;;5042488;28;20134;-59
2023/01/27 02:17:07;;;;;;;4.78;1.38;;;;;;;;;;5050445;28;20033;-60
2023/01/27 02:19:33;;;;;;;4.88;1.13;;;;;;;;;;5050264;28;20048;-60
2023/01/27 02:22:00;;;;;;;5.40;1.85;;;;;;;;;;5050337;28;20465;-64
2023/01/27 02:24:31;;;;;;;3.25;1.23;;;;;;;;;;5050703;28;20477;-61
2023/01/27 02:26:57;;;;;;;4.38;0.90;;;;;;;;;;5050488;28;20025;-59
2023/01/27 02:29:23;;;;;;;3.78;1.38;;;;;;;;;;5050137;28;20568;-61
2023/01/27 02:31:49;;;;;;;1.63;0.77;;;;;;;;;;5050096;28;20021;-60
2023/01/27 02:34:16;;;;;;;5.22;1.08;;;;;;;;;;5050236;28;20091;-60
2023/01/27 02:37:00;;;;;;;2.92;0.93;;;;;;;;;;5050045;28;20021;-60
2023/01/27 02:39:28;;;;;;;3.83;0.90;;;;;;;;;;5052596;28;20057;-61
2023/01/27 02:41:56;;;;;;;6.22;1.65;;;;;;;;;;5044017;28;20021;-64
2023/01/27 02:44:22;;;;;;;3.05;1.08;;;;;;;;;;5033866;28;20052;-60
2023/01/27 02:46:48;;;;;;;6.82;1.55;;;;;;;;;;5033528;28;20041;-63
2023/01/27 02:49:14;;;;;;;4.80;1.13;;;;;;;;;;5033820;28;20071;-60
2023/01/27 02:51:40;;;;;;;3.50;1.02;;;;;;;;;;5045511;28;20110;-60
2023/01/27 02:54:06;;;;;;;3.60;0.70;;;;;;;;;;5053490;28;20048;-62
2023/01/27 02:56:32;;;;;;;5.25;1.45;;;;;;;;;;5053325;28;20021;-62
2023/01/27 02:58:58;;;;;;;4.60;1.00;;;;;;;;;;5053448;28;20029;-60
2023/01/27 03:01:25;;;;;;;3.97;0.90;;;;;;;;;;5053666;28;20430;-60
2023/01/27 03:03:51;;;;;;;4.80;1.27;;;;;;;;;;5053136;28;20033;-59
2023/01/27 03:06:18;;;;;;;4.07;1.23;;;;;;;;;;5052399;28;20421;-63
2023/01/27 03:08:44;;;;;;;4.00;1.20;;;;;;;;;;5052963;28;20540;-60
2023/01/27 03:11:10;;;;;;;3.28;1.00;;;;;;;;;;5053246;28;20092;-60
2023/01/27 03:13:36;;;;;;;3.90;1.00;;;;;;;;;;5052907;28;20063;-60
2023/01/27 03:18:48;;;;;;;4.47;1.50;;;;;;;;;;5053046;28;20063;-60
2023/01/27 03:21:16;;;;;;;5.53;1.10;;;;;;;;;;5052205;28;20064;-59
2023/01/27 03:23:44;;;;;;;3.60;0.85;;;;;;;;;;5052810;28;20111;-59
2023/01/27 03:26:10;;;;;;;4.13;0.90;;;;;;;;;;5052866;28;20432;-59
2023/01/27 03:28:36;;;;;;;4.35;1.20;;;;;;;;;;5052665;28;20033;-61
2023/01/27 03:31:06;;;;;;;6.38;1.20;;;;;;;;;;5052860;28;20056;-60
2023/01/27 03:33:32;;;;;;;5.50;1.10;;;;;;;;;;5039100;28;20485;-60
2023/01/27 03:46:59;;;;;;;4.53;1.38;;;;;;;;;;5032629;28;20406;-61
2023/01/27 03:49:25;;;;;;;4.60;1.20;;;;;;;;;;5032497;28;20029;-59
2023/01/27 03:51:51;;;;;;;6.10;1.45;;;;;;;;;;5032283;28;20025;-60
2023/01/27 03:54:17;;;;;;;4.93;1.35;;;;;;;;;;5032500;28;20064;-60
2023/01/27 03:56:43;;;;;;;3.70;1.10;;;;;;;;;;5032302;28;20164;-60
2023/01/27 03:59:09;;;;;;;6.03;1.40;;;;;;;;;;5032497;28;20026;-60
2023/01/27 04:01:35;;;;;;;4.78;1.27;;;;;;;;;;5032492;28;20555;-62
2023/01/27 04:06:59;;;;;;;4.63;1.30;;;;;;;;;;5051812;28;20460;-62
2023/01/27 04:09:33;;;;;;;6.53;1.35;;;;;;;;;;5052273;28;20055;-61
2023/01/27 04:12:01;;;;;;;5.35;1.17;;;;;;;;;;5051746;28;20060;-65
2023/01/27 04:14:28;;;;;;;4.47;1.10;;;;;;;;;;5052155;28;20511;-61
2023/01/27 04:16:56;;;;;;;7.90;1.50;;;;;;;;;;5052306;28;20060;-64
2023/01/27 04:19:22;;;;;;;5.13;0.88;;;;;;;;;;5046986;28;20057;-62
2023/01/27 04:21:48;;;;;;;7.00;1.30;;;;;;;;;;5031820;28;20025;-60
2023/01/27 04:24:24;;;;;;;4.72;0.98;;;;;;;;;;5031978;28;20056;-60
2023/01/27 04:26:52;;;;;;;8.55;2.03;;;;;;;;;;5031716;28;20056;-65
2023/01/27 04:29:18;;;;;;;4.22;1.10;;;;;;;;;;5031549;28;20029;-59
2023/01/27 04:31:44;;;;;;;7.13;1.48;;;;;;;;;;5031701;28;20036;-59
2023/01/27 04:34:11;;;;;;;4.72;1.30;;;;;;;;;;5031637;28;20029;-59
2023/01/27 04:36:37;;;;;;;4.95;1.00;;;;;;;;;;5031094;28;20030;-60
2023/01/27 04:39:03;;;;;;;3.50;1.05;;;;;;;;;;5031695;28;20021;-61
2023/01/27 04:41:29;;;;;;;4.97;1.02;;;;;;;;;;5031357;28;20510;-60
2023/01/27 04:43:55;;;;;;;3.92;1.10;;;;;;;;;;5031788;28;20602;-60
2023/01/27 04:46:21;;;;;;;4.90;1.25;;;;;;;;;;5031172;28;20022;-60
2023/01/27 04:48:47;;;;;;;5.78;1.08;;;;;;;;;;5031459;28;20108;-59
2023/01/27 04:51:13;;;;;;;3.28;0.93;;;;;;;;;;5031206;28;20029;-63
2023/01/27 04:53:38;;;;;;;6.57;1.40;;;;;;;;;;5031102;28;20044;-62
2023/01/27 04:56:06;;;;;;;5.32;1.00;;;;;;;;;;5031389;28;20488;-65
2023/01/27 04:58:32;;;;;;;5.97;0.98;;;;;;;;;;5030998;28;20500;-60
2023/01/27 05:00:58;;;;;;;5.50;1.13;;;;;;;;;;5030593;28;20025;-62
2023/01/27 05:03:24;;;;;;;4.88;1.30;;;;;;;;;;5031216;28;20483;-60
2023/01/27 05:05:51;;;;;;;4.22;1.00;;;;;;;;;;5031078;28;20029;-61
2023/01/27 05:08:17;;;;;;;4.95;1.15;;;;;;;;;;5030962;28;20022;-62
2023/01/27 05:10:46;;;;;;;5.82;1.13;;;;;;;;;;5030953;28;20188;-61
2023/01/27 05:13:12;;;;;;;4.60;1.15;;;;;;;;;;5030884;28;20076;-60
2023/01/27 05:15:38;;;;;;;4.72;1.00;;;;;;;;;;5030786;28;20057;-61
2023/01/27 05:18:04;;;;;;;5.68;1.25;;;;;;;;;;5031069;28;20025;-61
2023/01/27 05:20:30;;;;;;;4.40;1.13;;;;;;;;;;5030802;28;20028;-60
2023/01/27 05:23:33;;;;;;;4.18;0.93;;;;;;;;;;5031355;28;20049;-63
2023/01/27 05:25:42;;;;;;;;;;;;;;;;;;5031180;28;20121;-65
2023/01/27 05:28:08;;;;;;;5.50;1.10;;;;;;;;;;5030973;28;20011;-62
2023/01/27 05:30:34;;;;;;;5.80;1.33;;;;;;;;;;5030613;28;20481;-64
2023/01/27 05:33:00;;;;;;;3.80;1.10;;;;;;;;;;5030899;28;20036;-60
2023/01/27 05:35:26;;;;;;;5.15;1.13;;;;;;;;;;5030772;28;20030;-60
2023/01/27 05:37:52;;;;;;;5.05;1.35;;;;;;;;;;5030879;28;20394;-63
2023/01/27 05:40:18;;;;;;;5.22;1.05;;;;;;;;;;5030580;28;20056;-61
2023/01/27 05:42:44;;;;;;;5.75;1.20;;;;;;;;;;5030698;28;20022;-62
2023/01/27 05:45:10;;;;;;;3.53;1.00;;;;;;;;;;5031689;28;20037;-60
2023/01/27 05:47:36;;;;;;;6.80;1.27;;;;;;;;;;5030467;28;20029;-60
2023/01/27 05:50:02;;;;;;;4.25;1.23;;;;;;;;;;5030787;28;20470;-60
2023/01/27 05:52:28;;;;;;;3.80;1.00;;;;;;;;;;5030641;28;20061;-60
2023/01/27 05:54:54;;;;;;;4.35;1.30;;;;;;;;;;5030629;28;20561;-60
2023/01/27 05:57:20;;;;;;;5.95;1.45;;;;;;;;;;5046415;28;20683;-60
2023/01/27 05:59:46;;;;;;;5.18;1.20;;;;;;;;;;5031241;28;20037;-60
2023/01/27 06:02:14;;;;;;;3.38;0.80;;;;;;;;;;5012594;28;20029;-60
2023/01/27 06:04:40;;;;;;;5.68;1.13;;;;;;;;;;5030614;28;20041;-62
2023/01/27 06:07:06;;;;;;;4.28;0.95;;;;;;;;;;5030599;28;20044;-61
2023/01/27 06:09:32;;;;;;;5.15;1.10;;;;;;;;;;5031094;28;20030;-60
2023/01/27 06:11:58;;;;;;;3.75;1.10;;;;;;;;;;5035048;28;20072;-63
2023/01/27 06:14:24;;;;;;;3.53;0.75;;;;;;;;;;5045387;28;20068;-61
2023/01/27 06:16:52;;;;;;;4.18;1.00;;;;;;;;;;5052361;28;20021;-65
2023/01/27 06:19:18;;;;;;;3.83;0.93;;;;;;;;;;5053988;28;20177;-61
2023/01/27 06:21:44;;;;;;;5.05;1.02;;;;;;;;;;5054240;28;20017;-60
2023/01/27 06:24:10;;;;;;;4.53;1.20;;;;;;;;;;5054149;28;20025;-60
2023/01/27 06:26:36;;;;;;;3.30;1.15;;;;;;;;;;5053832;28;20027;-60
2023/01/27 06:29:02;;;;;;;7.88;1.23;;;;;;;;;;5054148;28;20495;-61
2023/01/27 06:31:28;;;;;;;5.57;1.23;;;;;;;;;;5047134;28;20029;-60
2023/01/27 06:33:54;;;;;;;6.10;1.30;;;;;;;;;;5049771;28;20551;-61
2023/01/27 06:36:21;;;;;;;4.53;1.15;;;;;;;;;;5053773;28;20027;-61
2023/01/27 06:38:48;;;;;;;4.63;1.08;;;;;;;;;;5052916;28;20040;-63
2023/01/27 06:41:14;;;;;;;3.92;1.30;;;;;;;;;;5053577;28;20021;-59
2023/01/27 06:43:40;;;;;;;4.75;1.30;;;;;;;;;;5053788;28;20036;-58
2023/01/27 06:46:06;;;;;;;5.65;1.00;;;;;;;;;;5053569;28;20029;-63
2023/01/27 06:48:32;;;;;;;5.05;1.10;;;;;;;;;;5047074;28;20472;-58
2023/01/27 06:50:58;;;;;;;4.53;1.30;;;;;;;;;;5053598;28;20559;-63
2023/01/27 06:53:24;;;;;;;4.80;1.27;;;;;;;;;;5052524;28;20037;-63
2023/01/27 06:55:57;;;;;;;4.45;1.60;;;;;;;;;;5053412;28;20025;-64
2023/01/27 06:58:23;;;;;;;9.18;2.17;;;;;;;;;;5053192;28;20063;-64
2023/01/27 07:00:49;;;;;;;10.07;2.88;;;;;;;;;;5052336;28;20025;-56
2023/01/27 07:03:15;;;;;;;9.52;3.90;;;;;;;;;;5052780;28;20028;-59
2023/01/27 07:05:42;;;;;;;10.48;4.47;;;;;;;;;;5053047;28;20056;-64
2023/01/27 07:08:08;;;;;;;9.32;4.05;;;;;;;;;;5053389;28;20747;-59
2023/01/27 07:10:34;;;;;;;8.05;4.00;;;;;;;;;;5048971;28;20040;-58
2023/01/27 07:13:07;;;;;;;8.82;3.88;;;;;;;;;;5053631;28;20029;-59
2023/01/27 07:15:33;;;;;;;8.88;4.35;;;;;;;;;;5053060;28;20032;-58
2023/01/27 07:18:00;;;;;;;7.85;4.20;;;;;;;;;;5053489;28;20024;-64
2023/01/27 07:20:29;;;;;;;11.98;4.60;;;;;;;;;;5052819;28;20032;-65
2023/01/27 07:23:01;;;;;;;9.43;3.97;;;;;;;;;;5053163;28;20102;-67
2023/01/27 07:25:27;;;;;;;10.35;4.88;;;;;;;;;;5051296;28;20029;-59
2023/01/27 07:27:53;;;;;;;10.15;4.60;;;;;;;;;;5053113;28;20086;-66
2023/01/27 07:30:19;;;;;;;13.10;4.90;;;;;;;;;;5052729;28;20033;-61
2023/01/27 07:32:45;;;;;;;14.20;5.07;;;;;;;;;;5052678;28;20076;-58
2023/01/27 07:35:11;;;;;;;12.75;5.22;;;;;;;;;;5052805;28;20029;-58
2023/01/27 07:37:37;;;;;;;12.40;5.72;;;;;;;;;;5051135;28;20032;-57
2023/01/27 07:40:03;;;;;;;13.93;5.05;;;;;;;;;;5050999;28;20040;-58
2023/01/27 07:42:29;;;;;;;10.85;5.10;;;;;;;;;;5051188;28;20481;-57
2023/01/27 07:44:55;;;;;;;13.07;5.80;;;;;;;;;;5052042;28;20036;-57
2023/01/27 07:47:23;;;;;;;11.00;4.60;;;;;;;;;;5034676;28;20049;-60
2023/01/27 07:49:49;;;;;;;11.35;4.40;;;;;;;;;;5036956;28;20043;-60
2023/01/27 07:52:15;;;;;;;14.48;5.28;;;;;;;;;;5052358;28;20412;-59
2023/01/27 07:54:41;;;;;;;15.18;4.97;;;;;;;;;;5052547;28;20481;-59
2023/01/27 07:57:07;;;;;;;12.63;5.00;;;;;;;;;;5052238;28;20092;-58
2023/01/27 07:59:33;;;;;;;10.18;4.43;;;;;;;;;;5052218;28;20144;-59
2023/01/27 08:01:59;;;;;;;10.70;4.90;;;;;;;;;;5051896;28;20482;-58
2023/01/27 08:04:25;;;;;;;10.00;4.53;;;;;;;;;;5037348;28;20029;-59
2023/01/27 08:06:51;;;;;;;9.27;4.60;;;;;;;;;;5049941;28;20032;-58
2023/01/27 08:09:17;;;;;;;10.32;4.30;;;;;;;;;;5051605;28;20025;-58
2023/01/27 08:11:43;;;;;;;10.43;4.38;;;;;;;;;;5047577;28;20048;-58
2023/01/27 08:14:09;;;;;;;10.25;4.55;;;;;;;;;;5042937;28;20537;-58
2023/01/27 08:16:35;;;;;;;11.13;4.43;;;;;;;;;;5042537;28;20029;-57
2023/01/27 08:19:01;;;;;;;9.40;4.32;;;;;;;;;;5039237;28;20083;-58
2023/01/27 08:21:31;;;;;;;10.63;4.38;;;;;;;;;;5047514;28;20029;-59
2023/01/27 08:23:57;;;;;;;8.27;4.18;;;;;;;;;;5035604;28;20482;-56
2023/01/27 08:26:23;;;;;;;9.48;4.68;;;;;;;;;;5031466;28;20029;-58
2023/01/27 08:28:50;;;;;;;12.48;4.57;;;;;;;;;;5037058;28;20127;-59
2023/01/27 08:31:16;;;;;;;8.95;3.92;;;;;;;;;;5050490;28;20021;-56
2023/01/27 08:33:43;;;;;;;10.27;5.15;;;;;;;;;;5046932;28;20040;-59
2023/01/27 08:36:11;;;;;;;7.97;3.80;;;;;;;;;;5050498;28;20044;-59
2023/01/27 08:38:38;;;;;;;9.93;4.28;;;;;;;;;;5046252;28;20104;-58
2023/01/27 08:41:04;;;;;;;7.88;3.95;;;;;;;;;;5032078;28;20390;-59
2023/01/27 08:43:31;;;;;;;6.82;3.38;;;;;;;;;;5041904;28;20052;-58
2023/01/27 08:45:59;;;;;;;7.90;3.78;;;;;;;;;;5050418;28;20024;-60
2023/01/27 08:48:25;;;;;;;8.00;3.75;;;;;;;;;;5050698;28;20037;-56
2023/01/27 08:50:51;;;;;;;8.45;3.50;;;;;;;;;;5050738;28;20021;-58
2023/01/27 08:53:17;;;;;;;7.30;3.60;;;;;;;;;;5047089;28;20025;-58
2023/01/27 08:55:43;;;;;;;8.13;4.03;;;;;;;;;;5049018;28;20036;-59
2023/01/27 08:58:09;;;;;;;7.18;3.60;;;;;;;;;;5050103;28;20092;-58
2023/01/27 09:00:35;;;;;;;9.73;3.47;;;;;;;;;;5050028;28;20021;-59
2023/01/27 09:03:00;;;;;;;8.35;3.40;;;;;;;;;;5050548;28;20663;-55
2023/01/27 09:05:27;;;;;;;7.03;3.63;;;;;;;;;;5047840;28;20040;-57
2023/01/27 09:07:53;;;;;;;9.95;3.50;;;;;;;;;;5049003;28;20393;-59
2023/01/27 09:10:19;;;;;;;6.18;3.40;;;;;;;;;;5048999;28;20017;-57
2023/01/27 09:12:46;;;;;;;9.05;3.75;;;;;;;;;;5047426;28;20031;-57
2023/01/27 09:15:13;;;;;;;5.85;3.05;;;;;;;;;;5047851;28;20144;-56
2023/01/27 09:17:39;;;;;;;6.75;3.25;;;;;;;;;;5046097;28;20025;-56
2023/01/27 09:20:05;;;;;;;5.97;2.65;;;;;;;;;;5047298;28;20082;-57
2023/01/27 09:22:32;;;;;;;7.25;3.45;;;;;;;;;;5036174;28;20137;-59
2023/01/27 09:24:58;;;;;;;6.72;2.83;;;;;;;;;;5030951;28;20103;-55
2023/01/27 09:27:24;;;;;;;5.75;3.00;;;;;;;;;;5043365;28;20383;-56
2023/01/27 09:29:50;;;;;;;6.80;2.92;;;;;;;;;;5033835;28;20061;-55
2023/01/27 09:32:16;;;;;;;7.88;2.75;;;;;;;;;;5046227;28;20451;-55
2023/01/27 09:34:42;;;;;;;6.65;3.20;;;;;;;;;;5050469;28;20094;-55
2023/01/27 09:37:09;;;;;;;5.68;2.50;;;;;;;;;;5050845;28;20087;-56
2023/01/27 09:39:37;;;;;;;6.40;3.40;;;;;;;;;;5037549;28;20403;-60
2023/01/27 09:42:03;;;;;;;6.65;3.25;;;;;;;;;;5046872;28;20029;-61
2023/01/27 09:44:47;;;;;;;6.20;3.15;;;;;;;;;;5047162;28;20029;-60
2023/01/27 09:47:25;;;;;;;6.00;2.90;;;;;;;;;;5048316;28;20095;-60
2023/01/27 09:50:03;;;;;;;6.00;3.08;;;;;;;;;;5048947;28;20021;-60
2023/01/27 09:52:31;;;;;;;5.18;2.17;;;;;;;;;;5054214;28;20033;-53
2023/01/27 09:55:12;;;;;;;6.13;2.80;;;;;;;;;;5054915;28;20076;-52
2023/01/27 09:57:48;;;;;;;5.25;2.80;;;;;;;;;;5034564;28;20037;-56
2023/01/27 10:00:26;;;;;;;6.35;3.00;;;;;;;;;;5035604;28;20036;-52
2023/01/27 10:03:22;;;;;;;8.18;3.28;;;;;;;;;;5034721;28;20034;-61
2023/01/27 10:06:07;;;;;;;5.93;2.78;;;;;;;;;;5034492;28;20035;-53
2023/01/27 10:08:51;;;;;;;5.60;3.45;;;;;;;;;;5034718;28;20026;-52
2023/01/27 10:11:23;;;;;;;5.82;3.30;;;;;;;;;;5034265;28;20108;-54
2023/01/27 10:14:08;;;;;;;5.95;2.92;;;;;;;;;;5034529;28;20493;-52
2023/01/27 10:16:50;;;;;;;3.85;2.58;;;;;;;;;;5035242;28;20030;-53
2023/01/27 10:19:19;;;;;;;4.63;2.50;;;;;;;;;;5035578;28;20072;-53
2023/01/27 10:21:45;;;;;;;3.80;2.63;;;;;;;;;;5052994;28;20082;-53
2023/01/27 10:24:14;;;;;;;5.50;2.80;;;;;;;;;;5054402;28;20100;-54
2023/01/27 10:26:41;;;;;;;4.53;2.40;;;;;;;;;;5053392;28;20104;-53
2023/01/27 10:29:20;;;;;;;3.58;2.10;;;;;;;;;;5053927;28;20021;-54
2023/01/27 10:31:55;;;;;;;4.47;2.60;;;;;;;;;;5053204;28;20074;-57
2023/01/27 10:34:33;;;;;;;5.50;2.78;;;;;;;;;;5053291;28;20497;-54
2023/01/27 10:37:18;;;;;;;5.20;2.78;;;;;;;;;;5054087;28;20520;-56
2023/01/27 10:39:50;;;;;;;4.85;2.45;;;;;;;;;;5054048;28;20079;-61
2023/01/27 10:42:31;;;;;;;4.88;2.40;;;;;;;;;;5045330;28;20025;-55
2023/01/27 10:45:05;;;;;;;5.47;2.75;;;;;;;;;;5033915;28;20068;-54
2023/01/27 10:47:37;;;;;;;4.88;2.80;;;;;;;;;;5035492;28;20028;-58
2023/01/27 10:50:10;;;;;;;5.72;2.45;;;;;;;;;;5051105;28;20531;-55
2023/01/27 10:52:39;;;;;;;6.10;2.47;;;;;;;;;;5033724;28;20099;-57
2023/01/27 10:55:13;;;;;;;5.20;2.40;;;;;;;;;;5033896;28;20112;-53
2023/01/27 10:57:41;;;;;;;2.75;1.92;;;;;;;;;;5033477;28;20063;-55
2023/01/27 11:00:25;;;;;;;5.30;2.58;;;;;;;;;;5032875;28;20029;-55
2023/01/27 11:03:02;;;;;;;7.18;2.75;;;;;;;;;;5033656;28;20067;-61
2023/01/27 11:05:30;;;;;;;7.32;2.35;;;;;;;;;;5034054;28;20037;-58
2023/01/27 11:07:58;;;;;;;6.60;2.70;;;;;;;;;;5033579;28;20025;-56
2023/01/27 11:10:30;;;;;;;7.82;3.00;;;;;;;;;;5033298;28;20401;-61
2023/01/27 11:12:57;;;;;;;8.65;3.20;;;;;;;;;;5033384;28;20045;-56
2023/01/27 11:15:29;;;;;;;8.13;3.53;;;;;;;;;;5033230;28;20037;-56
2023/01/27 11:18:03;;;;;;;12.85;4.20;;;;;;;;;;5033306;28;20029;-55
2023/01/27 11:20:31;;;;;;;8.65;3.97;;;;;;;;;;5051489;28;20108;-56
2023/01/27 11:23:09;;;;;;;9.73;3.55;;;;;;;;;;5048017;28;20415;-56
2023/01/27 11:25:55;;;;;;;7.20;4.25;;;;;;;;;;5052957;28;20044;-55
2023/01/27 11:28:21;;;;;;;9.68;4.18;;;;;;;;;;5045860;28;20040;-59
2023/01/27 11:31:03;;;;;;;16.60;4.70;;;;;;;;;;5052825;28;20104;-59
2023/01/27 11:33:50;;;;;;;10.95;4.75;;;;;;;;;;5052432;28;20045;-56
2023/01/27 11:36:16;;;;;;;16.98;4.63;;;;;;;;;;5052510;28;20036;-58
2023/01/27 11:38:43;;;;;;;9.48;3.53;;;;;;;;;;5052643;28;20037;-60
2023/01/27 11:41:10;;;;;;;8.93;3.78;;;;;;;;;;5052546;28;20434;-54
2023/01/27 11:43:37;;;;;;;13.50;4.38;;;;;;;;;;5052726;28;20053;-59
2023/01/27 11:46:05;;;;;;;7.88;3.60;;;;;;;;;;5052797;28;20029;-59
2023/01/27 11:48:40;;;;;;;11.95;3.67;;;;;;;;;;5051231;28;20025;-60
2023/01/27 11:51:12;;;;;;;10.60;3.80;;;;;;;;;;5051298;28;20033;-55
2023/01/27 11:53:39;;;;;;;6.55;3.42;;;;;;;;;;5051808;28;20044;-59
2023/01/27 11:56:08;;;;;;;7.95;3.55;;;;;;;;;;5052521;28;20108;-60
2023/01/27 11:58:38;;;;;;;7.10;3.00;;;;;;;;;;5051762;28;20442;-59
2023/01/27 12:01:17;;;;;;;10.10;3.58;;;;;;;;;;5051636;28;20052;-59
2023/01/27 12:03:48;;;;;;;7.88;4.15;;;;;;;;;;5052017;28;20031;-60
2023/01/27 12:06:22;;;;;;;8.75;3.00;;;;;;;;;;5050592;28;20055;-59
2023/01/27 12:08:48;;;;;;;11.38;3.05;;;;;;;;;;5051421;28;20033;-58
2023/01/27 12:11:19;;;;;;;5.72;3.10;;;;;;;;;;5051756;28;20116;-57
2023/01/27 12:13:53;;;;;;;7.82;3.58;;;;;;;;;;5050986;28;20535;-55
2023/01/27 12:16:19;;;;;;;8.27;3.22;;;;;;;;;;5045563;28;20120;-59
2023/01/27 12:18:59;;;;;;;5.25;2.83;;;;;;;;;;5034129;28;20045;-60
2023/01/27 12:21:37;;;;;;;8.68;3.33;;;;;;;;;;5032758;28;20447;-55
2023/01/27 12:24:05;;;;;;;8.82;3.60;;;;;;;;;;5032431;28;20032;-55
2023/01/27 12:26:35;;;;;;;10.63;3.17;;;;;;;;;;5031804;28;20064;-55
2023/01/27 12:29:03;;;;;;;8.80;3.55;;;;;;;;;;5051960;28;20028;-55
2023/01/27 12:31:30;;;;;;;7.20;3.28;;;;;;;;;;5051650;28;20083;-59
2023/01/27 12:33:59;;;;;;;11.98;3.80;;;;;;;;;;5050897;28;20066;-56
2023/01/27 12:36:26;;;;;;;7.93;3.35;;;;;;;;;;5034139;28;20037;-54
2023/01/27 12:38:53;;;;;;;10.93;3.55;;;;;;;;;;5038752;28;20063;-56
2023/01/27 12:41:22;;;;;;;10.15;2.95;;;;;;;;;;5038915;28;20071;-59
2023/01/27 12:43:53;;;;;;;10.65;2.95;;;;;;;;;;5041646;28;20081;-59
2023/01/27 12:46:23;;;;;;;8.27;3.50;;;;;;;;;;5051230;28;20112;-56
2023/01/27 12:49:01;;;;;;;7.43;2.85;;;;;;;;;;5051305;28;20052;-58
2023/01/27 12:51:47;;;;;;;7.20;3.00;;;;;;;;;;5050875;28;20033;-58
2023/01/27 12:54:24;;;;;;;6.63;2.58;;;;;;;;;;5051390;28;20116;-55
2023/01/27 12:56:54;;;;;;;14.52;3.03;;;;;;;;;;5051358;28;20021;-59
2023/01/27 12:59:22;;;;;;;9.23;2.38;;;;;;;;;;5051224;28;20040;-58
2023/01/27 13:01:57;;;;;;;10.00;3.00;;;;;;;;;;5050871;28;20070;-55
2023/01/27 13:04:27;;;;;;;9.37;3.83;;;;;;;;;;5047000;28;20578;-59
2023/01/27 13:06:59;;;;;;;9.10;3.15;;;;;;;;;;5049590;28;20485;-59
2023/01/27 13:09:30;;;;;;;7.88;2.50;;;;;;;;;;5046049;28;20144;-59
2023/01/27 13:11:57;;;;;;;10.43;2.55;;;;;;;;;;5049989;28;20031;-59
2023/01/27 13:14:27;;;;;;;9.18;2.45;;;;;;;;;;5049250;28;20041;-59
2023/01/27 13:16:54;;;;;;;7.03;2.83;;;;;;;;;;5049931;28;20033;-57
2023/01/27 13:19:22;;;;;;;7.45;2.70;;;;;;;;;;5050797;28;20029;-59
2023/01/27 13:21:50;;;;;;;9.85;2.83;;;;;;;;;;5050785;28;20026;-59
2023/01/27 13:24:31;;;;;;;8.02;2.20;;;;;;;;;;5047852;28;20405;-58
2023/01/27 13:26:58;;;;;;;9.07;2.80;;;;;;;;;;5049054;28;20025;-58
2023/01/27 13:29:26;;;;;;;7.82;3.00;;;;;;;;;;5047997;28;20028;-56
2023/01/27 13:32:05;;;;;;;7.72;2.40;;;;;;;;;;5049046;28;20500;-58
2023/01/27 13:34:43;;;;;;;8.15;2.55;;;;;;;;;;5048711;28;20041;-56
2023/01/27 13:37:25;;;;;;;8.45;2.00;;;;;;;;;;5045595;28;20033;-61
2023/01/27 13:40:10;;;;;;;10.13;2.40;;;;;;;;;;5047131;28;20090;-59
2023/01/27 13:42:51;;;;;;;13.57;2.60;;;;;;;;;;5048500;28;20032;-59
2023/01/27 13:45:36;;;;;;;12.00;2.72;;;;;;;;;;5047991;28;20041;-58
2023/01/27 13:48:10;;;;;;;13.40;2.53;;;;;;;;;;5048140;28;20499;-55
2023/01/27 13:50:38;;;;;;;14.65;3.13;;;;;;;;;;5048290;28;20425;-57
2023/01/27 13:53:05;;;;;;;11.23;2.45;;;;;;;;;;5048688;28;20082;-59
2023/01/27 13:55:46;;;;;;;11.35;3.10;;;;;;;;;;5034038;28;20072;-59
2023/01/27 13:58:18;;;;;;;9.98;2.17;;;;;;;;;;5030916;28;20022;-55
2023/01/27 14:01:01;;;;;;;12.02;2.60;;;;;;;;;;5030864;28;20035;-59
2023/01/27 14:03:46;;;;;;;6.43;1.80;;;;;;;;;;5035191;28;20033;-60
2023/01/27 14:06:15;;;;;;;8.63;2.38;;;;;;;;;;5047935;28;20040;-59
2023/01/27 14:08:48;;;;;;;10.73;2.67;;;;;;;;;;5046734;28;20030;-58
2023/01/27 14:11:17;;;;;;;12.30;2.17;;;;;;;;;;5048998;28;20497;-59
2023/01/27 14:14:05;;;;;;;10.75;2.50;;;;;;;;;;5046170;28;20111;-58
2023/01/27 14:16:37;;;;;;;12.18;2.33;;;;;;;;;;5045645;28;20108;-59
2023/01/27 14:19:21;;;;;;;8.45;2.38;;;;;;;;;;5048746;28;20064;-60
2023/01/27 14:21:59;;;;;;;9.85;2.67;;;;;;;;;;5031027;28;20030;-61
2023/01/27 14:24:44;;;;;;;7.32;2.35;;;;;;;;;;5030529;28;20482;-59
2023/01/27 14:27:15;;;;;;;4.60;1.73;;;;;;;;;;5041612;28;20021;-59
2023/01/27 14:30:00;;;;;;;6.28;2.22;;;;;;;;;;5049519;28;20417;-60
2023/01/27 14:32:39;;;;;;;11.43;2.28;;;;;;;;;;5044172;28;20025;-58
2023/01/27 14:35:19;;;;;;;6.05;2.42;;;;;;;;;;5033502;28;20037;-60
2023/01/27 14:37:49;;;;;;;7.78;2.10;;;;;;;;;;5038937;28;20382;-59
2023/01/27 14:40:15;;;;;;;8.20;2.33;;;;;;;;;;5048992;28;20546;-59
2023/01/27 14:42:45;;;;;;;7.15;1.92;;;;;;;;;;5054404;28;20025;-60
2023/01/27 14:45:18;;;;;;;10.10;2.95;;;;;;;;;;5054344;28;20151;-60
2023/01/27 14:47:50;;;;;;;4.95;1.73;;;;;;;;;;5053234;28;20090;-60
2023/01/27 14:50:16;;;;;;;6.07;1.90;;;;;;;;;;5053728;28;20025;-59
2023/01/27 14:52:54;;;;;;;5.07;1.67;;;;;;;;;;5053962;28;20065;-60
2023/01/27 14:55:32;;;;;;;4.63;1.52;;;;;;;;;;5051253;28;20041;-59
2023/01/27 14:58:01;;;;;;;4.13;1.92;;;;;;;;;;5052849;28;20097;-58
2023/01/27 15:00:31;;;;;;;5.65;1.88;;;;;;;;;;5052571;28;20032;-60
2023/01/27 15:03:12;;;;;;;7.38;1.80;;;;;;;;;;5052608;28;20684;-59
2023/01/27 15:05:56;;;;;;;7.80;1.73;;;;;;;;;;5052368;28;20029;-60
2023/01/27 15:08:28;;;;;;;7.90;1.90;;;;;;;;;;5052531;28;20025;-59
2023/01/27 15:11:13;;;;;;;6.05;2.13;;;;;;;;;;5051155;28;20120;-59
2023/01/27 15:13:44;;;;;;;3.70;1.50;;;;;;;;;;5048244;28;20037;-60
2023/01/27 15:16:13;;;;;;;6.13;1.90;;;;;;;;;;5050050;28;20128;-60
2023/01/27 15:18:55;;;;;;;3.88;1.50;;;;;;;;;;5053380;28;20055;-60
2023/01/27 15:21:33;;;;;;;3.17;1.35;;;;;;;;;;5053064;28;20055;-60